JBU697 KRDU-KATL
Flight info
| Callsign | JBU697 |
|---|---|
| Flight time | 1h 5m |
| Altitude | 32000 |
| Route | SHPRD4 SHPRD DCT LEAVI OZZZI2 |
| Aircraft | A320/M-SDE3FGHIRWY/LB1 |
Departure
| Time | 2026-05-07 00:01 |
|---|---|
| Airport | Raleigh-Durham International Airport (KRDU) |
Arrival
| Time | 2026-05-07 01:06 |
|---|---|
| Airport | Hartsfield Jackson Atlanta International Airport (KATL) |
| Time | Latitude | Longitude | Altitude | Speed | Heading |
|---|---|---|---|---|---|
| 2026-05-06 23:37 | 35.87725 | -78.79445 | 424 ft | 0 kts | 132° |
| 2026-05-06 23:45 | 35.87734 | -78.79458 | 414 ft | 4 kts | 111° |
| 2026-05-06 23:46 | 35.87735 | -78.79489 | 416 ft | 4 kts | 79° |
| 2026-05-06 23:46 | 35.87731 | -78.79516 | 418 ft | 4 kts | 73° |
| 2026-05-06 23:46 | 35.87719 | -78.79542 | 421 ft | 4 kts | 23° |
| 2026-05-06 23:46 | 35.87709 | -78.79546 | 416 ft | 0 kts | 341° |
| 2026-05-06 23:48 | 35.87731 | -78.79546 | 418 ft | 5 kts | 18° |
| 2026-05-06 23:49 | 35.87735 | -78.79541 | 417 ft | 0 kts | 37° |
| 2026-05-06 23:51 | 35.87744 | -78.79532 | 424 ft | 4 kts | 40° |
| 2026-05-06 23:51 | 35.87773 | -78.79500 | 421 ft | 7 kts | 43° |
| 2026-05-06 23:51 | 35.87809 | -78.79457 | 421 ft | 8 kts | 45° |
| 2026-05-06 23:52 | 35.87823 | -78.79439 | 418 ft | 3 kts | 46° |
| 2026-05-06 23:52 | 35.87837 | -78.79421 | 428 ft | 3 kts | 47° |
| 2026-05-06 23:52 | 35.87860 | -78.79392 | 420 ft | 7 kts | 45° |
| 2026-05-06 23:52 | 35.87912 | -78.79327 | 423 ft | 13 kts | 44° |
| 2026-05-06 23:53 | 35.87987 | -78.79235 | 422 ft | 17 kts | 45° |
| 2026-05-06 23:53 | 35.88069 | -78.79133 | 420 ft | 15 kts | 45° |
| 2026-05-06 23:53 | 35.88143 | -78.79037 | 421 ft | 13 kts | 46° |
| 2026-05-06 23:53 | 35.88216 | -78.78946 | 421 ft | 16 kts | 45° |
| 2026-05-06 23:54 | 35.88296 | -78.78844 | 413 ft | 17 kts | 38° |
| 2026-05-06 23:54 | 35.88387 | -78.78735 | 417 ft | 19 kts | 45° |
| 2026-05-06 23:54 | 35.88481 | -78.78618 | 424 ft | 19 kts | 45° |
| 2026-05-06 23:54 | 35.88580 | -78.78497 | 420 ft | 21 kts | 44° |
| 2026-05-06 23:55 | 35.88681 | -78.78372 | 422 ft | 18 kts | 45° |
| 2026-05-06 23:55 | 35.88777 | -78.78254 | 416 ft | 21 kts | 44° |
| 2026-05-06 23:55 | 35.88878 | -78.78128 | 421 ft | 18 kts | 45° |
| 2026-05-06 23:55 | 35.88971 | -78.78004 | 410 ft | 21 kts | 57° |
| 2026-05-06 23:56 | 35.89045 | -78.77847 | 415 ft | 22 kts | 44° |
| 2026-05-06 23:56 | 35.89096 | -78.77783 | 418 ft | 9 kts | 46° |
| 2026-05-06 23:56 | 35.89143 | -78.77723 | 417 ft | 11 kts | 46° |
| 2026-05-06 23:56 | 35.89199 | -78.77659 | 419 ft | 11 kts | 29° |
| 2026-05-06 23:57 | 35.89248 | -78.77665 | 424 ft | 0 kts | 323° |
| 2026-05-06 23:58 | 35.89251 | -78.77668 | 424 ft | 1 kts | 322° |
| 2026-05-06 23:58 | 35.89274 | -78.77693 | 415 ft | 10 kts | 316° |
| 2026-05-06 23:58 | 35.89303 | -78.77729 | 424 ft | 0 kts | 315° |
| 2026-05-06 23:59 | 35.89305 | -78.77732 | 425 ft | 1 kts | 315° |
| 2026-05-06 23:59 | 35.89321 | -78.77752 | 429 ft | 9 kts | 314° |
| 2026-05-06 23:59 | 35.89351 | -78.77843 | 428 ft | 13 kts | 252° |
| 2026-05-06 23:59 | 35.89337 | -78.77865 | 420 ft | 2 kts | 226° |
| 2026-05-07 00:00 | 35.89332 | -78.77872 | 427 ft | 3 kts | 226° |
| 2026-05-07 00:00 | 35.89165 | -78.78078 | 420 ft | 70 kts | 225° |
| 2026-05-07 00:00 | 35.88677 | -78.78680 | 425 ft | 125 kts | 225° |
| 2026-05-07 00:00 | 35.88219 | -78.79240 | 430 ft | 154 kts | 224° |
| 2026-05-07 00:01 | 35.87142 | -78.80558 | 1071 ft | 165 kts | 227° |
| 2026-05-07 00:01 | 35.86720 | -78.81317 | 1499 ft | 163 kts | 252° |
| 2026-05-07 00:01 | 35.86607 | -78.82742 | 1976 ft | 175 kts | 264° |
| 2026-05-07 00:01 | 35.86534 | -78.84318 | 2385 ft | 189 kts | 263° |
| 2026-05-07 00:02 | 35.86443 | -78.85980 | 2746 ft | 207 kts | 264° |
| 2026-05-07 00:02 | 35.86334 | -78.87826 | 2500 ft | 230 kts | 264° |
| 2026-05-07 00:02 | 35.86207 | -78.89880 | 2724 ft | 247 kts | 264° |
| 2026-05-07 00:02 | 35.86076 | -78.91986 | 3747 ft | 246 kts | 264° |
| 2026-05-07 00:03 | 35.85941 | -78.94101 | 4582 ft | 249 kts | 264° |
| 2026-05-07 00:03 | 35.85805 | -78.96224 | 4862 ft | 248 kts | 264° |
| 2026-05-07 00:03 | 35.85670 | -78.98342 | 4968 ft | 247 kts | 265° |
| 2026-05-07 00:03 | 35.85532 | -79.00446 | 4990 ft | 246 kts | 265° |
| 2026-05-07 00:04 | 35.85393 | -79.02547 | 4991 ft | 245 kts | 264° |
| 2026-05-07 00:04 | 35.85254 | -79.04640 | 4994 ft | 245 kts | 264° |
| 2026-05-07 00:04 | 35.85114 | -79.06735 | 4997 ft | 243 kts | 264° |
| 2026-05-07 00:04 | 35.84976 | -79.08799 | 5047 ft | 243 kts | 263° |
| 2026-05-07 00:05 | 35.84833 | -79.10878 | 5900 ft | 243 kts | 264° |
| 2026-05-07 00:05 | 35.84691 | -79.12963 | 6821 ft | 245 kts | 265° |
| 2026-05-07 00:05 | 35.84539 | -79.15070 | 7674 ft | 249 kts | 263° |
| 2026-05-07 00:05 | 35.84294 | -79.17193 | 8509 ft | 252 kts | 261° |
| 2026-05-07 00:06 | 35.83994 | -79.19339 | 9328 ft | 256 kts | 260° |
| 2026-05-07 00:06 | 35.83675 | -79.21512 | 10118 ft | 259 kts | 259° |
| 2026-05-07 00:06 | 35.83352 | -79.23728 | 10772 ft | 266 kts | 260° |
| 2026-05-07 00:06 | 35.83027 | -79.25989 | 11471 ft | 270 kts | 260° |
| 2026-05-07 00:07 | 35.82700 | -79.28288 | 11882 ft | 274 kts | 260° |
| 2026-05-07 00:07 | 35.82374 | -79.30604 | 11984 ft | 274 kts | 261° |
| 2026-05-07 00:07 | 35.82050 | -79.32915 | 12008 ft | 274 kts | 261° |
| 2026-05-07 00:07 | 35.81725 | -79.35225 | 12008 ft | 274 kts | 261° |
| 2026-05-07 00:08 | 35.81399 | -79.37547 | 12350 ft | 277 kts | 260° |
| 2026-05-07 00:08 | 35.81071 | -79.39889 | 13147 ft | 278 kts | 261° |
| 2026-05-07 00:08 | 35.80739 | -79.42250 | 13886 ft | 281 kts | 261° |
| 2026-05-07 00:08 | 35.80404 | -79.44629 | 14591 ft | 282 kts | 261° |
| 2026-05-07 00:09 | 35.80068 | -79.47014 | 15287 ft | 283 kts | 261° |
| 2026-05-07 00:09 | 35.79733 | -79.49380 | 15959 ft | 285 kts | 261° |
| 2026-05-07 00:09 | 35.79392 | -79.51789 | 16641 ft | 286 kts | 261° |
| 2026-05-07 00:09 | 35.79050 | -79.54212 | 17296 ft | 288 kts | 262° |
| 2026-05-07 00:10 | 35.78703 | -79.56661 | 17932 ft | 291 kts | 262° |
| 2026-05-07 00:10 | 35.78353 | -79.59127 | 18530 ft | 294 kts | 263° |
| 2026-05-07 00:10 | 35.77998 | -79.61618 | 19091 ft | 296 kts | 262° |
| 2026-05-07 00:10 | 35.77642 | -79.64125 | 19657 ft | 298 kts | 262° |
| 2026-05-07 00:11 | 35.77284 | -79.66650 | 20223 ft | 300 kts | 262° |
| 2026-05-07 00:11 | 35.76924 | -79.69192 | 20784 ft | 302 kts | 262° |
| 2026-05-07 00:11 | 35.76560 | -79.71750 | 21324 ft | 304 kts | 262° |
| 2026-05-07 00:11 | 35.76191 | -79.74326 | 21843 ft | 307 kts | 262° |
| 2026-05-07 00:12 | 35.75816 | -79.76924 | 22362 ft | 309 kts | 262° |
| 2026-05-07 00:12 | 35.75440 | -79.79535 | 22853 ft | 312 kts | 262° |
| 2026-05-07 00:12 | 35.75063 | -79.82154 | 22976 ft | 309 kts | 263° |
| 2026-05-07 00:12 | 35.74690 | -79.84751 | 23129 ft | 309 kts | 263° |
| 2026-05-07 00:13 | 35.74315 | -79.87354 | 23696 ft | 310 kts | 262° |
| 2026-05-07 00:13 | 35.73936 | -79.89972 | 24140 ft | 311 kts | 262° |
| 2026-05-07 00:13 | 35.73553 | -79.92603 | 24574 ft | 313 kts | 262° |
| 2026-05-07 00:13 | 35.73167 | -79.95249 | 25003 ft | 315 kts | 262° |
| 2026-05-07 00:14 | 35.72777 | -79.97911 | 25420 ft | 317 kts | 262° |
| 2026-05-07 00:14 | 35.72385 | -80.00590 | 25834 ft | 319 kts | 262° |
| 2026-05-07 00:14 | 35.71990 | -80.03285 | 26243 ft | 321 kts | 262° |
| 2026-05-07 00:14 | 35.71594 | -80.05999 | 26648 ft | 323 kts | 262° |
| 2026-05-07 00:15 | 35.71198 | -80.08727 | 27042 ft | 325 kts | 262° |
| 2026-05-07 00:15 | 35.70797 | -80.11470 | 27436 ft | 327 kts | 262° |
| 2026-05-07 00:15 | 35.70393 | -80.14233 | 27836 ft | 329 kts | 261° |
| 2026-05-07 00:15 | 35.69992 | -80.16976 | 28259 ft | 331 kts | 261° |
| 2026-05-07 00:16 | 35.69581 | -80.19765 | 28693 ft | 332 kts | 261° |
| 2026-05-07 00:16 | 35.69166 | -80.22566 | 29118 ft | 333 kts | 261° |
| 2026-05-07 00:16 | 35.68608 | -80.25340 | 29513 ft | 337 kts | 252° |
| 2026-05-07 00:16 | 35.67765 | -80.28041 | 29899 ft | 340 kts | 252° |
| 2026-05-07 00:17 | 35.66912 | -80.30761 | 30263 ft | 342 kts | 252° |
| 2026-05-07 00:17 | 35.66054 | -80.33489 | 30643 ft | 342 kts | 252° |
| 2026-05-07 00:17 | 35.65195 | -80.36215 | 31055 ft | 342 kts | 252° |
| 2026-05-07 00:17 | 35.64338 | -80.38935 | 31471 ft | 341 kts | 252° |
| 2026-05-07 00:18 | 35.63479 | -80.41649 | 31857 ft | 341 kts | 252° |
| 2026-05-07 00:18 | 35.62623 | -80.44354 | 31960 ft | 338 kts | 252° |
| 2026-05-07 00:18 | 35.60920 | -80.49726 | 31979 ft | 337 kts | 252° |
| 2026-05-07 00:19 | 35.59225 | -80.55082 | 31986 ft | 335 kts | 253° |
| 2026-05-07 00:19 | 35.57537 | -80.60402 | 31979 ft | 334 kts | 253° |
| 2026-05-07 00:20 | 35.55854 | -80.65710 | 31983 ft | 333 kts | 253° |
| 2026-05-07 00:20 | 35.54169 | -80.71010 | 31984 ft | 333 kts | 252° |
| 2026-05-07 00:21 | 35.52481 | -80.76311 | 31984 ft | 333 kts | 252° |
| 2026-05-07 00:21 | 35.50785 | -80.81611 | 31982 ft | 333 kts | 252° |
| 2026-05-07 00:22 | 35.49092 | -80.86901 | 31984 ft | 333 kts | 252° |
| 2026-05-07 00:22 | 35.47397 | -80.92190 | 31995 ft | 332 kts | 252° |
| 2026-05-07 00:23 | 35.45710 | -80.97441 | 31986 ft | 330 kts | 252° |
| 2026-05-07 00:23 | 35.44025 | -81.02679 | 31986 ft | 330 kts | 252° |
| 2026-05-07 00:24 | 35.42337 | -81.07911 | 31941 ft | 330 kts | 252° |
| 2026-05-07 00:24 | 35.40623 | -81.13230 | 31990 ft | 339 kts | 252° |
| 2026-05-07 00:25 | 35.38889 | -81.18624 | 31989 ft | 340 kts | 252° |
| 2026-05-07 00:25 | 35.37141 | -81.24017 | 31984 ft | 341 kts | 252° |
| 2026-05-07 00:26 | 35.35388 | -81.29407 | 32002 ft | 340 kts | 252° |
| 2026-05-07 00:26 | 35.33659 | -81.34692 | 31968 ft | 335 kts | 252° |
| 2026-05-07 00:27 | 35.31936 | -81.39987 | 31962 ft | 335 kts | 252° |
| 2026-05-07 00:27 | 35.30213 | -81.45278 | 31958 ft | 335 kts | 252° |
| 2026-05-07 00:28 | 35.28487 | -81.50566 | 31955 ft | 334 kts | 252° |
| 2026-05-07 00:28 | 35.26758 | -81.55851 | 31943 ft | 334 kts | 252° |
| 2026-05-07 00:29 | 35.25023 | -81.61126 | 32008 ft | 334 kts | 252° |
| 2026-05-07 00:30 | 35.21565 | -81.71635 | 31962 ft | 331 kts | 251° |
| 2026-05-07 00:30 | 35.19816 | -81.76955 | 31985 ft | 341 kts | 251° |
| 2026-05-07 00:31 | 35.18039 | -81.82343 | 31984 ft | 342 kts | 251° |
| 2026-05-07 00:31 | 35.16254 | -81.87736 | 31967 ft | 342 kts | 251° |
| 2026-05-07 00:32 | 35.14468 | -81.93124 | 31973 ft | 342 kts | 251° |
| 2026-05-07 00:32 | 35.12680 | -81.98512 | 31987 ft | 342 kts | 251° |
| 2026-05-07 00:33 | 35.10888 | -82.03903 | 31982 ft | 342 kts | 251° |
| 2026-05-07 00:33 | 35.09095 | -82.09287 | 31984 ft | 342 kts | 251° |
| 2026-05-07 00:34 | 35.07304 | -82.14666 | 31999 ft | 342 kts | 251° |
| 2026-05-07 00:34 | 35.05505 | -82.20047 | 32003 ft | 342 kts | 251° |
| 2026-05-07 00:35 | 35.03690 | -82.25419 | 32009 ft | 342 kts | 251° |
| 2026-05-07 00:35 | 35.01860 | -82.30778 | 32011 ft | 343 kts | 248° |
| 2026-05-07 00:36 | 34.99504 | -82.35880 | 32000 ft | 348 kts | 244° |
| 2026-05-07 00:36 | 34.97049 | -82.41005 | 32004 ft | 351 kts | 244° |
| 2026-05-07 00:37 | 34.94583 | -82.46145 | 32014 ft | 351 kts | 244° |
| 2026-05-07 00:37 | 34.92113 | -82.51276 | 31962 ft | 351 kts | 244° |
| 2026-05-07 00:38 | 34.89631 | -82.56402 | 31962 ft | 351 kts | 244° |
| 2026-05-07 00:38 | 34.87146 | -82.61523 | 31966 ft | 352 kts | 243° |
| 2026-05-07 00:39 | 34.84423 | -82.66493 | 31961 ft | 354 kts | 239° |
| 2026-05-07 00:39 | 34.81528 | -82.71340 | 31962 ft | 354 kts | 239° |
| 2026-05-07 00:40 | 34.78641 | -82.76178 | 31790 ft | 351 kts | 239° |
| 2026-05-07 00:40 | 34.77231 | -82.78589 | 31288 ft | 349 kts | 240° |
| 2026-05-07 00:40 | 34.75871 | -82.80979 | 30819 ft | 348 kts | 240° |
| 2026-05-07 00:41 | 34.74521 | -82.83404 | 30350 ft | 346 kts | 240° |
| 2026-05-07 00:41 | 34.73173 | -82.85827 | 29886 ft | 345 kts | 240° |
| 2026-05-07 00:41 | 34.71831 | -82.88237 | 29401 ft | 343 kts | 240° |
| 2026-05-07 00:41 | 34.70493 | -82.90626 | 28954 ft | 341 kts | 240° |
| 2026-05-07 00:42 | 34.69157 | -82.92993 | 28536 ft | 338 kts | 240° |
| 2026-05-07 00:42 | 34.67832 | -82.95335 | 28125 ft | 335 kts | 240° |
| 2026-05-07 00:42 | 34.66515 | -82.97661 | 27860 ft | 333 kts | 240° |
| 2026-05-07 00:42 | 34.65210 | -82.99964 | 27456 ft | 330 kts | 240° |
| 2026-05-07 00:43 | 34.63911 | -83.02245 | 27060 ft | 327 kts | 240° |
| 2026-05-07 00:43 | 34.62625 | -83.04509 | 26650 ft | 325 kts | 240° |
| 2026-05-07 00:43 | 34.61351 | -83.06760 | 26246 ft | 322 kts | 241° |
| 2026-05-07 00:43 | 34.60087 | -83.08991 | 25850 ft | 320 kts | 241° |
| 2026-05-07 00:44 | 34.58831 | -83.11206 | 25461 ft | 317 kts | 241° |
| 2026-05-07 00:44 | 34.57583 | -83.13404 | 25083 ft | 315 kts | 241° |
| 2026-05-07 00:44 | 34.56346 | -83.15582 | 24699 ft | 313 kts | 241° |
| 2026-05-07 00:44 | 34.55116 | -83.17745 | 24339 ft | 310 kts | 241° |
| 2026-05-07 00:45 | 34.53897 | -83.19884 | 23978 ft | 308 kts | 241° |
| 2026-05-07 00:45 | 34.52681 | -83.22011 | 24030 ft | 308 kts | 241° |
| 2026-05-07 00:45 | 34.51457 | -83.24154 | 24047 ft | 310 kts | 241° |
| 2026-05-07 00:45 | 34.50230 | -83.26302 | 24046 ft | 310 kts | 241° |
| 2026-05-07 00:46 | 34.48999 | -83.28451 | 24048 ft | 310 kts | 241° |
| 2026-05-07 00:46 | 34.47773 | -83.30594 | 23893 ft | 308 kts | 241° |
| 2026-05-07 00:46 | 34.46550 | -83.32710 | 23478 ft | 306 kts | 240° |
| 2026-05-07 00:46 | 34.45332 | -83.34806 | 23139 ft | 304 kts | 240° |
| 2026-05-07 00:47 | 34.44112 | -83.36901 | 22811 ft | 305 kts | 240° |
| 2026-05-07 00:47 | 34.42893 | -83.38995 | 22548 ft | 302 kts | 240° |
| 2026-05-07 00:47 | 34.41688 | -83.41060 | 22198 ft | 298 kts | 240° |
| 2026-05-07 00:47 | 34.40500 | -83.43095 | 21819 ft | 295 kts | 240° |
| 2026-05-07 00:48 | 34.39319 | -83.45115 | 21440 ft | 293 kts | 240° |
| 2026-05-07 00:48 | 34.38542 | -83.46446 | 21182 ft | 292 kts | 240° |
| 2026-05-07 00:48 | 34.37381 | -83.48438 | 20797 ft | 290 kts | 240° |
| 2026-05-07 00:48 | 34.36210 | -83.50448 | 20266 ft | 293 kts | 240° |
| 2026-05-07 00:49 | 34.35036 | -83.52468 | 19822 ft | 293 kts | 240° |
| 2026-05-07 00:49 | 34.33862 | -83.54485 | 19451 ft | 293 kts | 239° |
| 2026-05-07 00:49 | 34.32688 | -83.56492 | 19087 ft | 292 kts | 239° |
| 2026-05-07 00:49 | 34.31519 | -83.58490 | 18730 ft | 291 kts | 239° |
| 2026-05-07 00:50 | 34.30350 | -83.60483 | 18364 ft | 290 kts | 240° |
| 2026-05-07 00:50 | 34.29165 | -83.62442 | 17995 ft | 290 kts | 235° |
| 2026-05-07 00:50 | 34.27716 | -83.64159 | 17633 ft | 293 kts | 227° |
| 2026-05-07 00:50 | 34.26192 | -83.65778 | 17270 ft | 291 kts | 227° |
| 2026-05-07 00:51 | 34.24682 | -83.67388 | 17030 ft | 289 kts | 227° |
| 2026-05-07 00:51 | 34.23171 | -83.69001 | 16829 ft | 290 kts | 227° |
| 2026-05-07 00:51 | 34.21656 | -83.70611 | 16647 ft | 290 kts | 227° |
| 2026-05-07 00:51 | 34.20144 | -83.72212 | 16445 ft | 289 kts | 227° |
| 2026-05-07 00:52 | 34.18629 | -83.73819 | 15975 ft | 292 kts | 227° |
| 2026-05-07 00:52 | 34.17116 | -83.75425 | 15368 ft | 288 kts | 226° |
| 2026-05-07 00:52 | 34.15642 | -83.76987 | 14776 ft | 284 kts | 226° |
| 2026-05-07 00:52 | 34.14171 | -83.78551 | 14194 ft | 281 kts | 226° |
| 2026-05-07 00:53 | 34.12693 | -83.80120 | 13590 ft | 278 kts | 225° |
| 2026-05-07 00:53 | 34.11268 | -83.81629 | 12952 ft | 275 kts | 225° |
| 2026-05-07 00:53 | 34.09837 | -83.83146 | 12309 ft | 272 kts | 225° |
| 2026-05-07 00:53 | 34.08411 | -83.84663 | 12052 ft | 270 kts | 225° |
| 2026-05-07 00:54 | 34.07037 | -83.86139 | 11801 ft | 267 kts | 226° |
| 2026-05-07 00:54 | 34.05649 | -83.87633 | 11447 ft | 267 kts | 225° |
| 2026-05-07 00:54 | 34.04264 | -83.89120 | 11112 ft | 267 kts | 225° |
| 2026-05-07 00:54 | 34.02881 | -83.90603 | 10813 ft | 265 kts | 225° |
| 2026-05-07 00:55 | 34.01508 | -83.92076 | 10515 ft | 264 kts | 225° |
| 2026-05-07 00:55 | 34.00139 | -83.93545 | 10235 ft | 262 kts | 225° |
| 2026-05-07 00:55 | 33.98780 | -83.94994 | 9979 ft | 260 kts | 222° |
| 2026-05-07 00:55 | 33.97225 | -83.96125 | 9673 ft | 264 kts | 207° |
| 2026-05-07 00:56 | 33.95423 | -83.96652 | 9359 ft | 269 kts | 195° |
| 2026-05-07 00:56 | 33.93572 | -83.96977 | 9083 ft | 268 kts | 194° |
| 2026-05-07 00:56 | 33.91724 | -83.97286 | 9010 ft | 269 kts | 194° |
| 2026-05-07 00:56 | 33.89867 | -83.97601 | 9017 ft | 270 kts | 194° |
| 2026-05-07 00:57 | 33.88008 | -83.97915 | 9015 ft | 269 kts | 194° |
| 2026-05-07 00:57 | 33.86173 | -83.98320 | 9003 ft | 266 kts | 200° |
| 2026-05-07 00:57 | 33.84417 | -83.98972 | 8713 ft | 263 kts | 204° |
| 2026-05-07 00:57 | 33.82692 | -83.99675 | 8411 ft | 261 kts | 204° |
| 2026-05-07 00:58 | 33.80977 | -84.00388 | 8107 ft | 260 kts | 204° |
| 2026-05-07 00:58 | 33.79271 | -84.01108 | 7758 ft | 260 kts | 204° |
| 2026-05-07 00:58 | 33.77562 | -84.01834 | 7452 ft | 260 kts | 204° |
| 2026-05-07 00:58 | 33.75864 | -84.02566 | 7148 ft | 259 kts | 204° |
| 2026-05-07 00:59 | 33.72487 | -84.04050 | 6543 ft | 258 kts | 204° |
| 2026-05-07 00:59 | 33.70806 | -84.04796 | 6210 ft | 257 kts | 204° |
| 2026-05-07 00:59 | 33.69137 | -84.05545 | 5913 ft | 255 kts | 204° |
| 2026-05-07 01:00 | 33.67488 | -84.06298 | 5636 ft | 253 kts | 204° |
| 2026-05-07 01:00 | 33.65855 | -84.07055 | 5353 ft | 251 kts | 205° |
| 2026-05-07 01:00 | 33.64435 | -84.08194 | 5089 ft | 245 kts | 230° |
| 2026-05-07 01:00 | 33.63574 | -84.09954 | 4979 ft | 247 kts | 243° |
| 2026-05-07 01:01 | 33.62957 | -84.11878 | 4966 ft | 250 kts | 257° |
| 2026-05-07 01:01 | 33.63075 | -84.13961 | 4704 ft | 257 kts | 282° |
| 2026-05-07 01:01 | 33.63776 | -84.15959 | 4312 ft | 263 kts | 292° |
| 2026-05-07 01:01 | 33.64629 | -84.17891 | 4011 ft | 258 kts | 285° |
| 2026-05-07 01:02 | 33.64940 | -84.19942 | 3982 ft | 247 kts | 265° |
| 2026-05-07 01:02 | 33.64938 | -84.22033 | 3895 ft | 253 kts | 266° |
| 2026-05-07 01:02 | 33.64940 | -84.24138 | 3624 ft | 252 kts | 266° |
| 2026-05-07 01:02 | 33.64945 | -84.26191 | 3318 ft | 235 kts | 266° |
| 2026-05-07 01:03 | 33.64950 | -84.28051 | 3031 ft | 211 kts | 265° |
| 2026-05-07 01:03 | 33.64953 | -84.29744 | 2779 ft | 193 kts | 264° |
| 2026-05-07 01:03 | 33.64954 | -84.31273 | 2555 ft | 174 kts | 264° |
| 2026-05-07 01:03 | 33.64955 | -84.32662 | 2339 ft | 157 kts | 264° |
| 2026-05-07 01:04 | 33.64956 | -84.33914 | 2125 ft | 143 kts | 264° |
| 2026-05-07 01:04 | 33.64955 | -84.35083 | 1965 ft | 136 kts | 265° |
| 2026-05-07 01:04 | 33.64954 | -84.36218 | 1779 ft | 136 kts | 263° |
| 2026-05-07 01:04 | 33.64954 | -84.37358 | 1613 ft | 136 kts | 264° |
| 2026-05-07 01:05 | 33.64954 | -84.38483 | 1454 ft | 137 kts | 268° |
| 2026-05-07 01:05 | 33.64954 | -84.39628 | 1270 ft | 137 kts | 266° |
| 2026-05-07 01:05 | 33.64956 | -84.40764 | 1088 ft | 136 kts | 266° |
| 2026-05-07 01:05 | 33.64950 | -84.41847 | 1006 ft | 106 kts | 270° |
| 2026-05-07 01:06 | 33.64954 | -84.42571 | 1007 ft | 70 kts | 271° |
| 2026-05-07 01:06 | 33.64954 | -84.43031 | 1006 ft | 34 kts | 268° |
| 2026-05-07 01:06 | 33.64902 | -84.43246 | 1007 ft | 19 kts | 242° |
| 2026-05-07 01:06 | 33.64875 | -84.43299 | 1006 ft | 0 kts | 233° |
| 2026-05-07 01:08 | 33.64863 | -84.43321 | 1006 ft | 7 kts | 237° |
| 2026-05-07 01:08 | 33.64811 | -84.43300 | 1007 ft | 14 kts | 134° |
| 2026-05-07 01:08 | 33.64779 | -84.43164 | 1007 ft | 13 kts | 123° |
| 2026-05-07 01:08 | 33.64664 | -84.43137 | 1008 ft | 21 kts | 191° |
| 2026-05-07 01:09 | 33.64600 | -84.43282 | 1008 ft | 17 kts | 227° |
| 2026-05-07 01:09 | 33.64541 | -84.43447 | 1007 ft | 27 kts | 270° |
| 2026-05-07 01:09 | 33.64539 | -84.43692 | 1006 ft | 31 kts | 268° |
| 2026-05-07 01:09 | 33.64506 | -84.43963 | 1006 ft | 34 kts | 261° |
| 2026-05-07 01:10 | 33.64399 | -84.44122 | 1006 ft | 20 kts | 193° |
| 2026-05-07 01:10 | 33.64353 | -84.44130 | 1006 ft | 3 kts | 255° |
| 2026-05-07 01:10 | 33.64355 | -84.44136 | 1006 ft | 0 kts | 282° |
| 2026-05-07 01:10 | 33.64355 | -84.44140 | 1006 ft | 1 kts | 282° |
| 2026-05-07 01:11 | 33.64355 | -84.44160 | 1006 ft | 3 kts | 262° |
| 2026-05-07 01:11 | 33.64353 | -84.44175 | 1006 ft | 2 kts | 263° |
| 2026-05-07 01:11 | 33.64350 | -84.44194 | 1006 ft | 0 kts | 257° |